LGKO/KGS METAR and TAF weather

Enter ICAO airport designator
Station Type Date Time Source
LGKO METAR 2020/01/19 14:20 UTC NOAA

LGKO 191420Z 33013KT 9999 FEW030 10/03 Q1017


Station Type Date Time Source
LGKO Decoded METAR 2020/01/19 14:20 UTC NOAA

Kos Airport , Greece (LGKO) 36-47N 027-04E
Jan 19, 2020 - 09:20 AM EST / 2020.01.19 1420 UTC
Wind: from the NNW (330 degrees) at 15 MPH (13 KT):0
Visibility: greater than 7 mile(s):0
Sky conditions: mostly clear
Temperature: 50 F (10 C)
Dew Point: 37 F (3 C)
Relative Humidity: 61%
Pressure (altimeter): 30.03 in. Hg (1017 hPa)
ob: LGKO 191420Z 33013KT 9999 FEW030 10/03 Q1017
cycle: 14

Station Type Date Time Source
LGKO TAF 2020/01/19 12:12 UTC NOAA

TAF LGKO 191100Z 1912/2012 35015KT 9999 FEW025
TEMPO 1912/1922 34015G25KT
BECMG 1922/1924 34020G30KT

Example: see airport list